Time;durP1;ratioP1;P1;durP2;ratioP2;P2;SDS_P1;SDS_P2;PMS_P1;PMS_P2;Temp;Humidity;BMP_temperature;BMP_pressure;BME280_temperature;BME280_humidity;BME280_pressure;Samples;Min_cycle;Max_cycle;Signal;HPM_P1;HPM_P2
2023/01/07 00:01:08;;;;;;;0.50;0.50;;;;;;;;;;5069682;28;20295;-66
2023/01/07 00:03:35;;;;;;;0.10;0.10;;;;;;;;;;5080068;28;20238;-65
2023/01/07 00:06:01;;;;;;;0.10;0.10;;;;;;;;;;5068539;28;20314;-66
2023/01/07 00:08:30;;;;;;;0.10;0.10;;;;;;;;;;5081324;28;20252;-65
2023/01/07 00:10:57;;;;;;;0.10;0.10;;;;;;;;;;5067024;28;20245;-65
2023/01/07 00:13:23;;;;;;;0.10;0.10;;;;;;;;;;5082567;28;20207;-65
2023/01/07 00:15:49;;;;;;;0.10;0.10;;;;;;;;;;5065273;28;20483;-65
2023/01/07 00:18:16;;;;;;;0.10;0.10;;;;;;;;;;5084228;28;20466;-66
2023/01/07 00:20:42;;;;;;;0.10;0.10;;;;;;;;;;5062897;28;20250;-65
2023/01/07 00:23:09;;;;;;;0.20;0.20;;;;;;;;;;5086190;28;20276;-66
2023/01/07 00:25:36;;;;;;;0.10;0.10;;;;;;;;;;5061298;28;20241;-65
2023/01/07 00:28:03;;;;;;;0.10;0.10;;;;;;;;;;5088188;28;20264;-64
2023/01/07 00:30:29;;;;;;;0.20;0.20;;;;;;;;;;5059393;28;20308;-65
2023/01/07 00:33:03;;;;;;;1.20;1.20;;;;;;;;;;5089581;28;20206;-65
2023/01/07 00:35:30;;;;;;;0.10;0.10;;;;;;;;;;5059356;28;20471;-65
2023/01/07 00:37:56;;;;;;;0.10;0.10;;;;;;;;;;5089710;28;20257;-65
2023/01/07 00:40:23;;;;;;;0.10;0.10;;;;;;;;;;5057922;28;20212;-66
2023/01/07 00:43:01;;;;;;;0.10;0.10;;;;;;;;;;5091484;28;20216;-65
2023/01/07 00:45:28;;;;;;;0.10;0.10;;;;;;;;;;5058638;28;20470;-64
2023/01/07 00:47:54;;;;;;;0.10;0.10;;;;;;;;;;5090138;28;20241;-64
2023/01/07 00:50:24;;;;;;;0.20;0.20;;;;;;;;;;5057011;28;20237;-65
2023/01/07 00:52:50;;;;;;;0.10;0.10;;;;;;;;;;5090935;28;20259;-64
2023/01/07 00:55:17;;;;;;;0.10;0.10;;;;;;;;;;5055835;28;20206;-64
2023/01/07 00:57:46;;;;;;;0.10;0.10;;;;;;;;;;5092949;28;20516;-65
2023/01/07 01:00:15;;;;;;;0.20;0.20;;;;;;;;;;5054229;28;20223;-64
2023/01/07 01:02:41;;;;;;;0.10;0.10;;;;;;;;;;5093740;28;20232;-64
2023/01/07 01:05:08;;;;;;;0.10;0.10;;;;;;;;;;5055143;28;20277;-65
2023/01/07 01:07:35;;;;;;;0.10;0.10;;;;;;;;;;5094589;28;20472;-64
2023/01/07 01:10:05;;;;;;;0.10;0.10;;;;;;;;;;5063432;28;20237;-64
2023/01/07 01:12:33;;;;;;;0.10;0.10;;;;;;;;;;5085513;28;20309;-63
2023/01/07 01:14:59;;;;;;;0.10;0.10;;;;;;;;;;5062959;28;20399;-63
2023/01/07 01:17:27;;;;;;;0.10;0.10;;;;;;;;;;5085431;28;20496;-63
2023/01/07 01:19:53;;;;;;;0.10;0.10;;;;;;;;;;5063072;28;20211;-63
2023/01/07 01:22:20;;;;;;;0.10;0.10;;;;;;;;;;5085392;28;20305;-63
2023/01/07 01:24:46;;;;;;;0.10;0.10;;;;;;;;;;5062957;28;20241;-64
2023/01/07 01:27:12;;;;;;;0.20;0.20;;;;;;;;;;5085299;28;20245;-64
2023/01/07 01:29:39;;;;;;;0.20;0.20;;;;;;;;;;5063068;28;20406;-63
2023/01/07 01:32:05;;;;;;;0.20;0.20;;;;;;;;;;5084705;28;20447;-63
2023/01/07 01:34:33;;;;;;;0.17;0.17;;;;;;;;;;5063361;28;20214;-63
2023/01/07 01:36:59;;;;;;;0.10;0.10;;;;;;;;;;5083064;28;20253;-63
2023/01/07 01:39:26;;;;;;;0.10;0.10;;;;;;;;;;5064648;28;20207;-63
2023/01/07 01:41:52;;;;;;;0.20;0.20;;;;;;;;;;5081858;28;20265;-63
2023/01/07 01:44:39;;;;;;;0.10;0.10;;;;;;;;;;5070355;28;20271;-63
2023/01/07 01:47:08;;;;;;;0.10;0.10;;;;;;;;;;5088235;28;20256;-63
2023/01/07 01:49:38;;;;;;;0.10;0.10;;;;;;;;;;5066600;28;20296;-62
2023/01/07 01:52:06;;;;;;;0.10;0.10;;;;;;;;;;5087896;28;20314;-63
2023/01/07 01:54:33;;;;;;;0.20;0.20;;;;;;;;;;5066554;28;20229;-63
2023/01/07 01:57:04;;;;;;;0.10;0.10;;;;;;;;;;5086548;28;20497;-62
2023/01/07 01:59:32;;;;;;;0.10;0.10;;;;;;;;;;5067092;28;20196;-62
2023/01/07 02:01:59;;;;;;;0.10;0.10;;;;;;;;;;5085815;28;20572;-62
2023/01/07 02:04:26;;;;;;;0.10;0.10;;;;;;;;;;5068817;28;20235;-63
2023/01/07 02:06:59;;;;;;;0.20;0.20;;;;;;;;;;5084438;28;20243;-62
2023/01/07 02:09:26;;;;;;;0.20;0.20;;;;;;;;;;5068631;28;20531;-63
2023/01/07 02:11:56;;;;;;;0.20;0.20;;;;;;;;;;5084298;28;20251;-63
2023/01/07 02:14:30;;;;;;;0.20;0.20;;;;;;;;;;5068940;28;20276;-63
2023/01/07 02:16:59;;;;;;;0.73;0.73;;;;;;;;;;5085380;28;20253;-63
2023/01/07 02:19:49;;;;;;;0.20;0.20;;;;;;;;;;5067885;28;20270;-63
2023/01/07 02:22:21;;;;;;;0.10;0.10;;;;;;;;;;5088172;28;20503;-63
2023/01/07 02:24:59;;;;;;;0.10;0.10;;;;;;;;;;5065762;28;20263;-63
2023/01/07 02:27:31;;;;;;;0.20;0.20;;;;;;;;;;5088060;28;20500;-63
2023/01/07 02:30:18;;;;;;;0.20;0.20;;;;;;;;;;5065535;28;20352;-62
2023/01/07 02:32:52;;;;;;;0.20;0.20;;;;;;;;;;5065817;28;20283;-63
2023/01/07 02:35:23;;;;;;;0.10;0.10;;;;;;;;;;5058162;28;20281;-63
2023/01/07 02:37:56;;;;;;;0.20;0.20;;;;;;;;;;5093391;28;20262;-63
2023/01/07 02:40:27;;;;;;;0.10;0.10;;;;;;;;;;5059490;28;20540;-63
2023/01/07 02:42:59;;;;;;;0.10;0.10;;;;;;;;;;5092305;28;20208;-63
2023/01/07 02:45:28;;;;;;;0.17;0.17;;;;;;;;;;5060093;28;20219;-62
2023/01/07 02:47:56;;;;;;;0.20;0.20;;;;;;;;;;5091974;28;20200;-63
2023/01/07 02:50:23;;;;;;;0.13;0.13;;;;;;;;;;5059145;28;20233;-63
2023/01/07 02:52:49;;;;;;;0.10;0.10;;;;;;;;;;5093396;28;20424;-63
2023/01/07 02:55:17;;;;;;;0.10;0.10;;;;;;;;;;5057483;28;20457;-63
2023/01/07 02:57:50;;;;;;;0.10;0.10;;;;;;;;;;5094743;28;20277;-64
2023/01/07 03:00:26;;;;;;;0.13;0.13;;;;;;;;;;5057468;28;20217;-63
2023/01/07 03:03:02;;;;;;;0.10;0.10;;;;;;;;;;5092175;28;20199;-63
2023/01/07 03:05:38;;;;;;;0.10;0.10;;;;;;;;;;5060541;28;20314;-63
2023/01/07 03:08:13;;;;;;;0.10;0.10;;;;;;;;;;5088544;28;20192;-63
2023/01/07 03:10:42;;;;;;;0.10;0.10;;;;;;;;;;5063209;28;20245;-63
2023/01/07 03:13:11;;;;;;;0.10;0.10;;;;;;;;;;5087791;28;20192;-64
2023/01/07 03:15:40;;;;;;;0.10;0.10;;;;;;;;;;5062767;28;20314;-63
2023/01/07 03:18:09;;;;;;;0.10;0.10;;;;;;;;;;5088276;28;20512;-63
2023/01/07 03:20:37;;;;;;;0.10;0.10;;;;;;;;;;5062125;28;20282;-63
2023/01/07 03:23:05;;;;;;;0.10;0.10;;;;;;;;;;5088691;28;20219;-64
2023/01/07 03:25:32;;;;;;;0.10;0.10;;;;;;;;;;5060702;28;20580;-64
2023/01/07 03:27:59;;;;;;;0.10;0.10;;;;;;;;;;5090390;28;20223;-63
2023/01/07 03:30:26;;;;;;;0.10;0.10;;;;;;;;;;5058790;28;20226;-64
2023/01/07 03:32:55;;;;;;;0.10;0.10;;;;;;;;;;5091747;28;20266;-63
2023/01/07 03:35:23;;;;;;;0.20;0.20;;;;;;;;;;5057862;28;20236;-63
2023/01/07 03:37:50;;;;;;;0.20;0.20;;;;;;;;;;5092632;28;20389;-63
2023/01/07 03:40:17;;;;;;;0.10;0.10;;;;;;;;;;5056758;28;20231;-63
2023/01/07 03:42:45;;;;;;;0.10;0.10;;;;;;;;;;5094078;28;20246;-63
2023/01/07 03:45:14;;;;;;;0.20;0.20;;;;;;;;;;5055384;28;20210;-64
2023/01/07 03:47:43;;;;;;;0.10;0.10;;;;;;;;;;5094631;28;20398;-63
2023/01/07 03:50:09;;;;;;;0.10;0.10;;;;;;;;;;5054665;28;20246;-64
2023/01/07 03:52:39;;;;;;;0.10;0.10;;;;;;;;;;5095913;28;20229;-64
2023/01/07 03:55:06;;;;;;;0.10;0.10;;;;;;;;;;5064302;28;20195;-64
2023/01/07 03:57:32;;;;;;;0.10;0.10;;;;;;;;;;5052808;28;20280;-63
2023/01/07 03:59:59;;;;;;;0.10;0.10;;;;;;;;;;5063974;28;20240;-64
2023/01/07 04:02:26;;;;;;;0.17;0.17;;;;;;;;;;5086323;28;20273;-63
2023/01/07 04:04:53;;;;;;;0.10;0.10;;;;;;;;;;5063467;28;20277;-63
2023/01/07 04:07:19;;;;;;;0.10;0.10;;;;;;;;;;5086190;28;20272;-63
2023/01/07 04:09:49;;;;;;;0.10;0.10;;;;;;;;;;5063751;28;20293;-63
2023/01/07 04:12:15;;;;;;;0.10;0.10;;;;;;;;;;5086188;28;20243;-63
2023/01/07 04:14:42;;;;;;;0.10;0.10;;;;;;;;;;5064040;28;20525;-63
2023/01/07 04:17:08;;;;;;;0.10;0.10;;;;;;;;;;5086024;28;20252;-64
2023/01/07 04:19:37;;;;;;;0.20;0.20;;;;;;;;;;5063624;28;20272;-63
2023/01/07 04:22:03;;;;;;;0.10;0.10;;;;;;;;;;5084769;28;20436;-63
2023/01/07 04:24:30;;;;;;;0.10;0.10;;;;;;;;;;5064479;28;20234;-63
2023/01/07 04:26:57;;;;;;;0.10;0.10;;;;;;;;;;5083045;28;20308;-62
2023/01/07 04:29:24;;;;;;;0.30;0.30;;;;;;;;;;5066156;28;20477;-63
2023/01/07 04:31:50;;;;;;;0.20;0.20;;;;;;;;;;5081248;28;20236;-63
2023/01/07 04:34:16;;;;;;;0.10;0.10;;;;;;;;;;5068094;28;20242;-63
2023/01/07 04:36:43;;;;;;;0.20;0.20;;;;;;;;;;5079255;28;20305;-63
2023/01/07 04:39:09;;;;;;;0.10;0.10;;;;;;;;;;5070008;28;20231;-63
2023/01/07 04:41:36;;;;;;;0.20;0.20;;;;;;;;;;5077311;28;20315;-63
2023/01/07 04:44:04;;;;;;;0.20;0.20;;;;;;;;;;5071525;28;20276;-63
2023/01/07 04:46:30;;;;;;;0.10;0.10;;;;;;;;;;5075546;28;20350;-62
2023/01/07 04:48:56;;;;;;;0.10;0.10;;;;;;;;;;5073150;28;20292;-63
2023/01/07 04:51:23;;;;;;;0.10;0.10;;;;;;;;;;5073476;28;20256;-62
2023/01/07 04:53:49;;;;;;;0.10;0.10;;;;;;;;;;5075255;28;20380;-63
2023/01/07 04:56:15;;;;;;;0.10;0.10;;;;;;;;;;5071595;28;20239;-64
2023/01/07 04:58:42;;;;;;;0.10;0.10;;;;;;;;;;5076929;28;20229;-64
2023/01/07 05:01:10;;;;;;;0.10;0.10;;;;;;;;;;5069420;28;20237;-63
2023/01/07 05:03:37;;;;;;;0.40;0.40;;;;;;;;;;5078324;28;20207;-63
2023/01/07 05:06:03;;;;;;;0.13;0.13;;;;;;;;;;5068182;28;20250;-63
2023/01/07 05:08:30;;;;;;;0.10;0.10;;;;;;;;;;5080005;28;20235;-62
2023/01/07 05:10:56;;;;;;;0.10;0.10;;;;;;;;;;5066309;28;20324;-63
2023/01/07 05:13:24;;;;;;;0.20;0.20;;;;;;;;;;5082160;28;20242;-62
2023/01/07 05:15:50;;;;;;;0.10;0.10;;;;;;;;;;5064446;28;20298;-63
2023/01/07 05:18:18;;;;;;;1.23;0.63;;;;;;;;;;5086620;28;20213;-63
2023/01/07 05:20:45;;;;;;;0.13;0.13;;;;;;;;;;5067031;28;20484;-63
2023/01/07 05:23:12;;;;;;;0.10;0.10;;;;;;;;;;5088844;28;20355;-63
2023/01/07 05:25:38;;;;;;;0.17;0.17;;;;;;;;;;5065289;28;20240;-63
2023/01/07 05:28:04;;;;;;;0.10;0.10;;;;;;;;;;5090841;28;20227;-63
2023/01/07 05:30:34;;;;;;;0.10;0.10;;;;;;;;;;5062628;28;20256;-63
2023/01/07 05:33:00;;;;;;;0.10;0.10;;;;;;;;;;5091762;28;20263;-63
2023/01/07 05:35:28;;;;;;;0.10;0.10;;;;;;;;;;5061645;28;20263;-63
2023/01/07 05:37:54;;;;;;;0.10;0.10;;;;;;;;;;5093784;28;20283;-63
2023/01/07 05:40:21;;;;;;;0.10;0.10;;;;;;;;;;5060300;28;20250;-63
2023/01/07 05:42:47;;;;;;;0.10;0.10;;;;;;;;;;5095341;28;20239;-63
2023/01/07 05:45:13;;;;;;;0.20;0.20;;;;;;;;;;5058225;28;20245;-63
2023/01/07 05:47:40;;;;;;;0.10;0.10;;;;;;;;;;5097092;28;20212;-63
2023/01/07 05:50:06;;;;;;;0.10;0.10;;;;;;;;;;5066301;28;20299;-64
2023/01/07 05:52:34;;;;;;;0.10;0.10;;;;;;;;;;5055362;28;20212;-64
2023/01/07 05:55:00;;;;;;;0.10;0.10;;;;;;;;;;5066547;28;20532;-63
2023/01/07 05:57:27;;;;;;;0.10;0.10;;;;;;;;;;5088700;28;20484;-63
2023/01/07 05:59:53;;;;;;;0.10;0.10;;;;;;;;;;5066572;28;20268;-63
2023/01/07 06:02:19;;;;;;;0.10;0.10;;;;;;;;;;5088648;28;20250;-63
2023/01/07 06:04:46;;;;;;;0.10;0.10;;;;;;;;;;5066448;28;20277;-63
2023/01/07 06:07:12;;;;;;;0.10;0.10;;;;;;;;;;5088562;28;20314;-64
2023/01/07 06:09:40;;;;;;;0.10;0.10;;;;;;;;;;5066288;28;20259;-64
2023/01/07 06:12:06;;;;;;;0.10;0.10;;;;;;;;;;5088140;28;20238;-64
2023/01/07 06:14:33;;;;;;;0.10;0.10;;;;;;;;;;5066278;28;20460;-64
2023/01/07 06:16:59;;;;;;;0.20;0.20;;;;;;;;;;5086140;28;20274;-64
2023/01/07 06:19:26;;;;;;;0.13;0.13;;;;;;;;;;5068070;28;20201;-64
2023/01/07 06:21:52;;;;;;;0.10;0.10;;;;;;;;;;5084110;28;20248;-63
2023/01/07 06:24:19;;;;;;;0.17;0.17;;;;;;;;;;5069958;28;20207;-64
2023/01/07 06:26:46;;;;;;;0.10;0.10;;;;;;;;;;5082109;28;20410;-64
2023/01/07 06:29:13;;;;;;;0.10;0.10;;;;;;;;;;5070785;28;20238;-64
2023/01/07 06:31:39;;;;;;;0.10;0.10;;;;;;;;;;5080432;28;20572;-64
2023/01/07 06:34:06;;;;;;;0.10;0.10;;;;;;;;;;5072967;28;20253;-64
2023/01/07 06:36:32;;;;;;;0.10;0.10;;;;;;;;;;5078388;28;20250;-63
2023/01/07 06:38:59;;;;;;;0.17;0.17;;;;;;;;;;5074917;28;20279;-63
2023/01/07 06:41:25;;;;;;;0.20;0.20;;;;;;;;;;5076338;28;20244;-64
2023/01/07 06:43:53;;;;;;;0.10;0.10;;;;;;;;;;5076539;28;20277;-63
2023/01/07 06:46:19;;;;;;;1.37;1.33;;;;;;;;;;5074724;28;20461;-64
2023/01/07 06:48:45;;;;;;;0.10;0.10;;;;;;;;;;5078406;28;20257;-65
2023/01/07 06:51:12;;;;;;;0.10;0.10;;;;;;;;;;5072560;28;20271;-64
2023/01/07 06:53:38;;;;;;;0.10;0.10;;;;;;;;;;5080163;28;20404;-64
2023/01/07 06:56:05;;;;;;;0.10;0.10;;;;;;;;;;5070587;28;20283;-64
2023/01/07 06:58:31;;;;;;;0.10;0.10;;;;;;;;;;5081941;28;20454;-63
2023/01/07 07:01:04;;;;;;;0.10;0.10;;;;;;;;;;5068534;28;20476;-63
2023/01/07 07:03:30;;;;;;;0.10;0.10;;;;;;;;;;5082217;28;20193;-64
2023/01/07 07:05:56;;;;;;;0.10;0.10;;;;;;;;;;5068085;28;20257;-63
2023/01/07 07:08:23;;;;;;;0.10;0.10;;;;;;;;;;5083754;28;20273;-62
2023/01/07 07:10:49;;;;;;;0.10;0.10;;;;;;;;;;5065832;28;20305;-63
2023/01/07 07:13:15;;;;;;;0.10;0.10;;;;;;;;;;5085628;28;20277;-64
2023/01/07 07:15:42;;;;;;;0.20;0.20;;;;;;;;;;5064166;28;20445;-63
2023/01/07 07:18:10;;;;;;;0.10;0.10;;;;;;;;;;5087836;28;20536;-64
2023/01/07 07:20:36;;;;;;;0.10;0.10;;;;;;;;;;5062426;28;20509;-63
2023/01/07 07:23:02;;;;;;;0.10;0.10;;;;;;;;;;5089343;28;20437;-63
2023/01/07 07:25:29;;;;;;;0.10;0.10;;;;;;;;;;5060468;28;20269;-63
2023/01/07 07:27:55;;;;;;;0.10;0.10;;;;;;;;;;5091206;28;20263;-63
2023/01/07 07:30:21;;;;;;;0.13;0.13;;;;;;;;;;5057928;28;20301;-64
2023/01/07 07:32:48;;;;;;;0.17;0.17;;;;;;;;;;5092909;28;20494;-64
2023/01/07 07:35:16;;;;;;;0.10;0.10;;;;;;;;;;5056005;28;20244;-64
2023/01/07 07:37:42;;;;;;;0.10;0.10;;;;;;;;;;5094368;28;20210;-64
2023/01/07 07:40:09;;;;;;;0.10;0.10;;;;;;;;;;5054910;28;20200;-65
2023/01/07 07:42:37;;;;;;;0.10;0.10;;;;;;;;;;5096068;28;20217;-64
2023/01/07 07:45:04;;;;;;;0.10;0.10;;;;;;;;;;5064224;28;20205;-64
2023/01/07 07:47:30;;;;;;;0.10;0.10;;;;;;;;;;5086624;28;20308;-63
2023/01/07 07:49:56;;;;;;;0.10;0.10;;;;;;;;;;5064300;28;20292;-64
2023/01/07 07:52:24;;;;;;;0.10;0.10;;;;;;;;;;5086500;28;20313;-64
2023/01/07 07:54:50;;;;;;;0.10;0.10;;;;;;;;;;5064070;28;20271;-64
2023/01/07 07:57:17;;;;;;;0.10;0.10;;;;;;;;;;5086441;28;20562;-64
2023/01/07 07:59:43;;;;;;;0.10;0.10;;;;;;;;;;5064304;28;20454;-63
2023/01/07 08:02:12;;;;;;;0.10;0.10;;;;;;;;;;5086387;28;20245;-64
2023/01/07 08:04:38;;;;;;;0.10;0.10;;;;;;;;;;5064204;28;20400;-63
2023/01/07 08:07:05;;;;;;;0.20;0.20;;;;;;;;;;5085576;28;20250;-63
2023/01/07 08:09:32;;;;;;;0.10;0.10;;;;;;;;;;5064530;28;20205;-63
2023/01/07 08:11:59;;;;;;;1.40;0.60;;;;;;;;;;5083803;28;20647;-62
2023/01/07 08:14:25;;;;;;;0.20;0.20;;;;;;;;;;5066133;28;20459;-63
2023/01/07 08:16:51;;;;;;;0.10;0.10;;;;;;;;;;5081802;28;20555;-63
2023/01/07 08:19:18;;;;;;;0.10;0.10;;;;;;;;;;5067996;28;20245;-63
2023/01/07 08:21:44;;;;;;;0.10;0.10;;;;;;;;;;5079657;28;20251;-62
2023/01/07 08:24:11;;;;;;;0.10;0.10;;;;;;;;;;5069884;28;20206;-64
2023/01/07 08:26:38;;;;;;;0.10;0.10;;;;;;;;;;5077586;28;20242;-63
2023/01/07 08:29:05;;;;;;;0.10;0.10;;;;;;;;;;5071830;28;20456;-64
2023/01/07 08:31:31;;;;;;;0.30;0.30;;;;;;;;;;5075899;28;20273;-65
2023/01/07 08:33:57;;;;;;;0.10;0.10;;;;;;;;;;5073106;28;20278;-64
2023/01/07 08:36:27;;;;;;;0.10;0.10;;;;;;;;;;5074090;28;20262;-63
2023/01/07 08:38:53;;;;;;;0.10;0.10;;;;;;;;;;5074562;28;20206;-62
2023/01/07 08:41:20;;;;;;;0.20;0.20;;;;;;;;;;5073046;28;20257;-64
2023/01/07 08:43:48;;;;;;;0.10;0.10;;;;;;;;;;5076373;28;20278;-63
2023/01/07 08:46:14;;;;;;;0.10;0.10;;;;;;;;;;5073731;28;20259;-62
2023/01/07 08:48:40;;;;;;;0.20;0.20;;;;;;;;;;5082226;28;20577;-65
2023/01/07 08:51:09;;;;;;;0.10;0.10;;;;;;;;;;5070942;28;20300;-64
2023/01/07 08:53:35;;;;;;;0.10;0.10;;;;;;;;;;5083857;28;20449;-65
2023/01/07 08:56:01;;;;;;;0.10;0.10;;;;;;;;;;5071860;28;20250;-64
2023/01/07 08:58:28;;;;;;;0.40;0.40;;;;;;;;;;5085140;28;20227;-65
2023/01/07 09:01:00;;;;;;;0.13;0.13;;;;;;;;;;5069871;28;20442;-64
2023/01/07 09:03:26;;;;;;;0.13;0.13;;;;;;;;;;5085650;28;20250;-64
2023/01/07 09:05:52;;;;;;;0.10;0.10;;;;;;;;;;5069453;28;20248;-65
2023/01/07 09:08:19;;;;;;;0.10;0.10;;;;;;;;;;5087459;28;20235;-65
2023/01/07 09:10:45;;;;;;;0.10;0.10;;;;;;;;;;5071135;28;20240;-65
2023/01/07 09:13:11;;;;;;;0.10;0.10;;;;;;;;;;5092319;28;20263;-65
2023/01/07 09:15:38;;;;;;;0.10;0.10;;;;;;;;;;5065627;28;20578;-64
2023/01/07 09:18:06;;;;;;;0.10;0.10;;;;;;;;;;5090634;28;20235;-65
2023/01/07 09:20:32;;;;;;;0.10;0.10;;;;;;;;;;5063625;28;20248;-64
2023/01/07 09:22:58;;;;;;;0.10;0.10;;;;;;;;;;5092537;28;20269;-68
2023/01/07 09:25:25;;;;;;;0.10;0.10;;;;;;;;;;5061759;28;20204;-70
2023/01/07 09:27:51;;;;;;;0.10;0.10;;;;;;;;;;5094440;28;20255;-68
2023/01/07 09:30:18;;;;;;;0.13;0.13;;;;;;;;;;5059387;28;20268;-67
2023/01/07 09:32:44;;;;;;;0.10;0.10;;;;;;;;;;5096293;28;20249;-67
2023/01/07 09:35:12;;;;;;;0.10;0.10;;;;;;;;;;5057422;28;20246;-67
2023/01/07 09:37:38;;;;;;;0.47;0.47;;;;;;;;;;5097907;28;20242;-67
2023/01/07 09:40:06;;;;;;;0.10;0.10;;;;;;;;;;5066657;28;20249;-67
2023/01/07 09:42:37;;;;;;;0.97;0.97;;;;;;;;;;5055381;28;20207;-68
2023/01/07 09:45:08;;;;;;;0.10;0.10;;;;;;;;;;5066990;28;20441;-69
2023/01/07 09:47:37;;;;;;;0.10;0.10;;;;;;;;;;5055732;28;20207;-68
2023/01/07 09:50:05;;;;;;;0.10;0.10;;;;;;;;;;5067010;28;20271;-68
2023/01/07 09:52:35;;;;;;;0.10;0.10;;;;;;;;;;5055392;28;20279;-66
2023/01/07 09:55:06;;;;;;;0.20;0.20;;;;;;;;;;5066870;28;20490;-68
2023/01/07 09:57:32;;;;;;;0.10;0.10;;;;;;;;;;5055629;28;20451;-67
2023/01/07 09:59:58;;;;;;;0.10;0.10;;;;;;;;;;5066720;28;20232;-68
2023/01/07 10:02:33;;;;;;;0.17;0.17;;;;;;;;;;5071054;28;20239;-68
2023/01/07 10:05:10;;;;;;;0.10;0.10;;;;;;;;;;5066739;28;20432;-68
2023/01/07 10:07:39;;;;;;;0.10;0.10;;;;;;;;;;5055309;28;20211;-67
2023/01/07 10:10:12;;;;;;;0.10;0.10;;;;;;;;;;5066169;28;20554;-68
2023/01/07 10:12:42;;;;;;;0.10;0.10;;;;;;;;;;5055137;28;20228;-67
2023/01/07 10:15:14;;;;;;;0.10;0.10;;;;;;;;;;5056790;28;20271;-67
2023/01/07 10:17:47;;;;;;;0.10;0.10;;;;;;;;;;5096393;28;20288;-68
2023/01/07 10:20:16;;;;;;;0.20;0.20;;;;;;;;;;5057691;28;20193;-67
2023/01/07 10:22:48;;;;;;;0.10;0.10;;;;;;;;;;5095807;28;20208;-67
2023/01/07 10:25:17;;;;;;;0.10;0.10;;;;;;;;;;5057544;28;20260;-66
2023/01/07 10:27:45;;;;;;;0.10;0.10;;;;;;;;;;5095673;28;20283;-66
2023/01/07 10:30:13;;;;;;;0.10;0.10;;;;;;;;;;5056315;28;20249;-66
2023/01/07 10:32:40;;;;;;;0.10;0.10;;;;;;;;;;5096577;28;20453;-66
2023/01/07 10:35:12;;;;;;;0.10;0.10;;;;;;;;;;5065536;28;20415;-67
2023/01/07 10:37:39;;;;;;;0.20;0.20;;;;;;;;;;5054437;28;20455;-67
2023/01/07 10:40:16;;;;;;;0.10;0.10;;;;;;;;;;5065792;28;20579;-67
2023/01/07 10:42:46;;;;;;;0.10;0.10;;;;;;;;;;5065709;28;20200;-67
2023/01/07 10:45:21;;;;;;;0.10;0.10;;;;;;;;;;5056623;28;20223;-67
2023/01/07 10:47:56;;;;;;;0.10;0.10;;;;;;;;;;5093886;28;20257;-67
2023/01/07 10:50:29;;;;;;;0.10;0.10;;;;;;;;;;5059041;28;20191;-67
2023/01/07 10:53:00;;;;;;;0.10;0.10;;;;;;;;;;5091863;28;20222;-68
2023/01/07 10:55:35;;;;;;;0.10;0.10;;;;;;;;;;5060259;28;20457;-67
2023/01/07 10:58:02;;;;;;;0.10;0.10;;;;;;;;;;5090266;28;20193;-67
2023/01/07 11:00:28;;;;;;;0.10;0.10;;;;;;;;;;5060591;28;20291;-67
2023/01/07 11:02:57;;;;;;;0.10;0.10;;;;;;;;;;5091688;28;20206;-68
2023/01/07 11:05:25;;;;;;;0.10;0.10;;;;;;;;;;5059475;28;20525;-67
2023/01/07 11:07:53;;;;;;;0.10;0.10;;;;;;;;;;5092582;28;20267;-67
2023/01/07 11:10:21;;;;;;;0.27;0.27;;;;;;;;;;5058332;28;20236;-67
2023/01/07 11:12:50;;;;;;;0.10;0.10;;;;;;;;;;5093446;28;20211;-68
2023/01/07 11:15:19;;;;;;;0.10;0.10;;;;;;;;;;5056182;28;20236;-67
2023/01/07 11:17:46;;;;;;;0.10;0.10;;;;;;;;;;5094069;28;20209;-67
2023/01/07 11:20:13;;;;;;;0.10;0.10;;;;;;;;;;5056332;28;20450;-67
2023/01/07 11:22:39;;;;;;;0.10;0.10;;;;;;;;;;5095255;28;20264;-67
2023/01/07 11:25:21;;;;;;;0.10;0.10;;;;;;;;;;5064887;28;20238;-67
2023/01/07 11:27:48;;;;;;;0.10;0.10;;;;;;;;;;5064518;28;20282;-68
2023/01/07 11:30:20;;;;;;;0.10;0.10;;;;;;;;;;5056424;28;20256;-68
2023/01/07 11:32:53;;;;;;;0.10;0.10;;;;;;;;;;5093271;28;20238;-67
2023/01/07 11:35:20;;;;;;;0.10;0.10;;;;;;;;;;5057316;28;20445;-68
2023/01/07 11:37:47;;;;;;;0.10;0.10;;;;;;;;;;5093072;28;20236;-67
2023/01/07 11:40:18;;;;;;;0.10;0.10;;;;;;;;;;5055955;28;20270;-67
2023/01/07 11:42:50;;;;;;;0.10;0.10;;;;;;;;;;5093690;28;20203;-67
2023/01/07 11:45:18;;;;;;;0.10;0.10;;;;;;;;;;5056790;28;20207;-67
2023/01/07 11:47:46;;;;;;;0.10;0.10;;;;;;;;;;5093659;28;20238;-66
2023/01/07 11:50:23;;;;;;;0.20;0.20;;;;;;;;;;5055386;28;20205;-67
2023/01/07 11:53:00;;;;;;;0.10;0.10;;;;;;;;;;5092378;28;20281;-67
2023/01/07 11:55:27;;;;;;;0.10;0.10;;;;;;;;;;5059112;28;20262;-67
2023/01/07 11:57:55;;;;;;;0.20;0.20;;;;;;;;;;5090892;28;20222;-67
2023/01/07 12:00:22;;;;;;;0.10;0.10;;;;;;;;;;5057062;28;20237;-68
2023/01/07 12:03:06;;;;;;;0.10;0.10;;;;;;;;;;5093421;28;20227;-67
2023/01/07 12:05:33;;;;;;;0.13;0.13;;;;;;;;;;5060460;28;20484;-68
2023/01/07 12:07:59;;;;;;;0.10;0.10;;;;;;;;;;5089432;28;20247;-68
2023/01/07 12:10:27;;;;;;;0.10;0.10;;;;;;;;;;5058480;28;20206;-68
2023/01/07 12:12:55;;;;;;;0.10;0.10;;;;;;;;;;5090530;28;20518;-68
2023/01/07 12:15:23;;;;;;;0.10;0.10;;;;;;;;;;5057634;28;20458;-68
2023/01/07 12:17:54;;;;;;;0.10;0.10;;;;;;;;;;5091592;28;20194;-68
2023/01/07 12:20:33;;;;;;;0.10;0.10;;;;;;;;;;5057439;28;20269;-68
2023/01/07 12:23:05;;;;;;;0.10;0.10;;;;;;;;;;5089178;28;20188;-68
2023/01/07 12:25:37;;;;;;;0.10;0.10;;;;;;;;;;5059522;28;20240;-68
2023/01/07 12:28:09;;;;;;;0.10;0.10;;;;;;;;;;5087461;28;20203;-68
2023/01/07 12:30:59;;;;;;;0.10;0.10;;;;;;;;;;5060846;28;20238;-68
2023/01/07 12:33:35;;;;;;;0.10;0.10;;;;;;;;;;5082207;28;20193;-68
2023/01/07 12:36:05;;;;;;;0.10;0.10;;;;;;;;;;5068242;28;20241;-68
2023/01/07 12:38:38;;;;;;;0.10;0.10;;;;;;;;;;5080199;28;20191;-68
2023/01/07 12:41:09;;;;;;;0.10;0.10;;;;;;;;;;5068847;28;20611;-68
2023/01/07 12:43:39;;;;;;;0.10;0.10;;;;;;;;;;5078815;28;20232;-68
2023/01/07 12:46:07;;;;;;;0.10;0.10;;;;;;;;;;5068851;28;20301;-68
2023/01/07 12:48:36;;;;;;;0.10;0.10;;;;;;;;;;5079489;28;20446;-68
2023/01/07 12:51:04;;;;;;;0.10;0.10;;;;;;;;;;5067803;28;20260;-68
2023/01/07 12:53:34;;;;;;;0.10;0.10;;;;;;;;;;5080438;28;20379;-68
2023/01/07 12:56:03;;;;;;;0.10;0.10;;;;;;;;;;5067551;28;20317;-68
2023/01/07 12:58:35;;;;;;;0.10;0.10;;;;;;;;;;5080377;28;20215;-68
2023/01/07 13:01:05;;;;;;;0.10;0.10;;;;;;;;;;5067460;28;20302;-68
2023/01/07 13:03:37;;;;;;;0.10;0.10;;;;;;;;;;5080462;28;20224;-68
2023/01/07 13:06:05;;;;;;;0.10;0.10;;;;;;;;;;5068363;28;20249;-68
2023/01/07 13:08:35;;;;;;;0.10;0.10;;;;;;;;;;5080036;28;20205;-68
2023/01/07 13:11:03;;;;;;;0.10;0.10;;;;;;;;;;5067800;28;20460;-68
2023/01/07 13:13:31;;;;;;;0.10;0.10;;;;;;;;;;5080547;28;20240;-68
2023/01/07 13:15:59;;;;;;;0.10;0.10;;;;;;;;;;5066600;28;20309;-68
2023/01/07 13:18:29;;;;;;;0.10;0.10;;;;;;;;;;5081679;28;20397;-68
2023/01/07 13:20:59;;;;;;;0.10;0.10;;;;;;;;;;5065802;28;20261;-68
2023/01/07 13:23:29;;;;;;;0.10;0.10;;;;;;;;;;5081676;28;20441;-67
2023/01/07 13:26:05;;;;;;;0.20;0.20;;;;;;;;;;5065710;28;20274;-68
2023/01/07 13:28:39;;;;;;;0.10;0.10;;;;;;;;;;5079777;28;20534;-68
2023/01/07 13:31:16;;;;;;;0.10;0.10;;;;;;;;;;5068109;28;20238;-69
2023/01/07 13:33:50;;;;;;;0.10;0.10;;;;;;;;;;5076827;28;20226;-69
2023/01/07 13:36:22;;;;;;;0.10;0.10;;;;;;;;;;5071462;28;20311;-69
2023/01/07 13:38:55;;;;;;;0.10;0.10;;;;;;;;;;5077581;28;20192;-66
2023/01/07 13:41:34;;;;;;;0.13;0.13;;;;;;;;;;5076586;28;20245;-67
2023/01/07 13:44:05;;;;;;;0.10;0.10;;;;;;;;;;5075489;28;20403;-67
2023/01/07 13:46:33;;;;;;;0.10;0.10;;;;;;;;;;5079294;28;20242;-66
2023/01/07 13:49:01;;;;;;;0.30;0.30;;;;;;;;;;5075941;28;20491;-66
2023/01/07 13:51:29;;;;;;;0.10;0.10;;;;;;;;;;5077873;28;20281;-67
2023/01/07 13:53:55;;;;;;;0.10;0.10;;;;;;;;;;5077056;28;20205;-65
2023/01/07 13:56:29;;;;;;;0.10;0.10;;;;;;;;;;5076629;28;20315;-64
2023/01/07 13:58:56;;;;;;;0.10;0.10;;;;;;;;;;5076400;28;20433;-66
2023/01/07 14:01:24;;;;;;;0.13;0.13;;;;;;;;;;5076658;28;20435;-66
2023/01/07 14:03:52;;;;;;;0.10;0.10;;;;;;;;;;5078140;28;20261;-66
2023/01/07 14:06:35;;;;;;;0.10;0.10;;;;;;;;;;5075372;28;20244;-66
2023/01/07 14:09:12;;;;;;;0.10;0.10;;;;;;;;;;5074840;28;20395;-65
2023/01/07 14:11:46;;;;;;;0.10;0.10;;;;;;;;;;5080845;28;20562;-65
2023/01/07 14:14:19;;;;;;;0.10;0.10;;;;;;;;;;5071788;28;20522;-65
2023/01/07 14:16:50;;;;;;;0.10;0.10;;;;;;;;;;5082515;28;20271;-66
2023/01/07 14:19:34;;;;;;;0.10;0.10;;;;;;;;;;5071639;28;20264;-66
2023/01/07 14:22:10;;;;;;;0.10;0.10;;;;;;;;;;5089036;28;20244;-65
2023/01/07 14:24:47;;;;;;;0.20;0.20;;;;;;;;;;5066330;28;20265;-65
2023/01/07 14:27:22;;;;;;;0.10;0.10;;;;;;;;;;5088272;28;20249;-65
2023/01/07 14:29:49;;;;;;;0.10;0.10;;;;;;;;;;5065874;28;20300;-66
2023/01/07 14:32:25;;;;;;;0.10;0.10;;;;;;;;;;5088074;28;20305;-66
2023/01/07 14:34:56;;;;;;;0.10;0.10;;;;;;;;;;5065731;28;20222;-66
2023/01/07 14:37:32;;;;;;;0.10;0.10;;;;;;;;;;5088213;28;20256;-66
2023/01/07 14:39:58;;;;;;;0.10;0.10;;;;;;;;;;5065956;28;20203;-66
2023/01/07 14:42:25;;;;;;;0.10;0.10;;;;;;;;;;5088047;28;20633;-66
2023/01/07 14:44:52;;;;;;;0.10;0.10;;;;;;;;;;5065872;28;20212;-66
2023/01/07 14:47:33;;;;;;;0.10;0.10;;;;;;;;;;5087957;28;20258;-66
2023/01/07 14:50:08;;;;;;;0.10;0.10;;;;;;;;;;5065229;28;20224;-66
2023/01/07 14:52:45;;;;;;;0.10;0.10;;;;;;;;;;5054462;28;20219;-65